Terminal Aerodrome Forecast
Issued by NWS

Home | Current Version | Previous Version | Text Only | Print | Product List | Glossary On
Versions: 1 2 3 4 5 6 7 8 9 10 11 12 13 14 15 16 17 18 19 20 21 22 23 24 25 26 27 28 29 30 31 32 33 34 35 36 37 38 39 40 41 42 43 44 45 46 47 48 49 50
564
FTUS44 KHGX 260209 AAA
TAFCXO
TAF AMD
KCXO 260209Z 2602/2624 01005KT 4SM BR OVC004
     FM260400 01004KT 1SM BR OVC002
     FM261500 02008KT P6SM OVC015
     FM261900 05007KT P6SM SCT015=

USA.gov is the U.S. government's official web portal to all federal, state and local government web resources and services.